Marshall, IN (47859)

6:38 PM EDT on August 30, 2015 (GMT -0400)
South Bloomingdale | | Change Station
CLOSE
Current Station
Personal Weather Station
Location: Bloomingdale, IN
Elevation: 656 ft
Nearby Weather Stations

Elev 656 ft 39.82 °N, 87.25 °W | Updated 7 minutes ago

Partly Cloudy
Partly Cloudy
88.2 °F
Feels Like 92 °F
N
2.7
Wind Variable Wind from South

Today
High -- | Low -- °F
--% Chance of Precip.
Yesterday
High -- | Low -- °F
Precip. -- in
7:14 AM 8:23 PM
Full, 98% visible
Pressure 30.00 in
Visibility 7.0 miles
Clouds Clear
Heat Index 92 °F
Dew Point 68 °F
Humidity 52%
Rainfall 0.00 in
Snow Depth Not available.
UV 2 out of 12
Pollen 10.20 out of 12
Air Quality Not available.
Flu Activity Not available.
METAR KDNV 302215Z AUTO 00000KT 7SM CLR 28/20 A3000 RMK AO2 T02790203
Pressure 30.00 in
Visibility 7.0 miles
Clouds Clear
Heat Index 92 °F
Dew Point 68 °F
Humidity 52%
Rainfall 0.00 in
Snow Depth Not available.
UV 2 out of 12
Pollen 10.20 out of 12
Air Quality Not available.
Flu Activity Not available.
METAR KDNV 302215Z AUTO 00000KT 7SM CLR 28/20 A3000 RMK AO2 T02790203

10-Day Weather Forecast

×

Almanac

Astronomy

Aug. 30, 2015 Rise Set
Actual Time
Civil Twilight
Nautical Twilight
Astronomical Twilight
Moon
Length of Visible Light
Length of Day
Tomorrow will be .
, % of the Moon is Illuminated

Today's Extremes

State Highs State Lows

Community

WunderPhotos

Upload Photos

1,851,074 photos uploaded!

WunderBlogs® & News

Nearby

Air Quality

  Air Quality AQ Index Pollutant
Not available.

Snow Depth

Station Depth Elevation

Earthquake Activity

City Distance Mag. Time & Date
Minimum magnitude displayed is 2.5.

Coastal Water Temperatures

Place Temperature

Stations

Nearby Weather Stations

Station Location Temp. Windchill Dew Point Humidity Wind Precip. Elev Updated Type